Time;durP1;ratioP1;P1;durP2;ratioP2;P2;SDS_P1;SDS_P2;PMS_P1;PMS_P2;Temp;Humidity;BMP_temperature;BMP_pressure;BME280_temperature;BME280_humidity;BME280_pressure;Samples;Min_cycle;Max_cycle;Signal;HPM_P1;HPM_P2
2022/10/20 00:01:30;;;;;;;27.20;16.50;;;20.40;79.50;;;;;;7376204;19;20046;-76
2022/10/20 00:03:59;;;;;;;27.60;16.40;;;20.40;79.40;;;;;;7375594;19;20058;-77
2022/10/20 00:06:30;;;;;;;20.58;13.40;;;20.40;79.40;;;;;;7376964;19;20017;-76
2022/10/20 00:09:03;;;;;;;26.23;11.85;;;20.40;79.40;;;;;;7395768;19;20025;-76
2022/10/20 00:11:33;;;;;;;21.33;12.15;;;20.40;79.40;;;;;;7376192;19;20015;-76
2022/10/20 00:14:03;;;;;;;26.90;13.20;;;20.40;79.30;;;;;;7376947;19;20082;-77
2022/10/20 00:16:33;;;;;;;20.83;12.60;;;20.40;79.20;;;;;;7375015;19;20011;-76
2022/10/20 00:19:02;;;;;;;30.98;13.55;;;20.40;79.10;;;;;;7378704;19;20025;-77
2022/10/20 00:21:31;;;;;;;23.58;13.00;;;20.40;79.10;;;;;;7376677;19;20046;-77
2022/10/20 00:24:04;;;;;;;23.27;12.48;;;20.40;79.00;;;;;;7395640;19;20097;-77
2022/10/20 00:26:34;;;;;;;16.88;12.35;;;20.40;79.00;;;;;;7375873;19;20059;-77
2022/10/20 00:29:04;;;;;;;29.17;12.35;;;20.40;78.80;;;;;;7375302;19;20015;-77
2022/10/20 00:31:33;;;;;;;25.38;11.15;;;20.40;78.80;;;;;;7377334;19;20464;-77
2022/10/20 00:34:02;;;;;;;26.63;12.23;;;20.40;78.90;;;;;;7377954;19;20015;-77
2022/10/20 00:36:30;;;;;;;24.70;11.48;;;20.40;78.80;;;;;;7377125;19;20025;-76
2022/10/20 00:39:04;;;;;;;27.33;11.82;;;20.30;78.60;;;;;;7392744;19;20018;-77
2022/10/20 00:41:34;;;;;;;20.13;10.75;;;20.30;78.60;;;;;;7375542;19;20086;-77
2022/10/20 00:44:04;;;;;;;28.83;10.38;;;20.30;78.60;;;;;;7370767;19;20018;-76
2022/10/20 00:46:40;;;;;;;25.60;11.43;;;20.30;78.70;;;;;;7376417;19;20079;-77
2022/10/20 00:49:14;;;;;;;20.55;10.75;;;20.30;78.80;;;;;;7378024;19;20017;-77
2022/10/20 00:51:44;;;;;;;28.65;11.85;;;20.30;78.60;;;;;;7379071;19;20010;-76
2022/10/20 00:54:20;;;;;;;23.20;11.63;;;20.30;78.70;;;;;;7379227;19;20025;-77
2022/10/20 00:56:50;;;;;;;26.65;12.00;;;20.30;78.80;;;;;;7397683;19;20023;-77
2022/10/20 00:59:23;;;;;;;27.90;11.97;;;20.30;78.70;;;;;;7375607;19;20018;-77
2022/10/20 01:01:51;;;;;;;32.58;11.48;;;20.30;78.80;;;;;;7373360;19;20089;-77
2022/10/20 01:04:21;;;;;;;26.83;11.43;;;20.30;78.60;;;;;;7373867;19;20086;-77
2022/10/20 01:06:50;;;;;;;19.40;11.35;;;20.30;78.50;;;;;;7374906;19;20076;-77
2022/10/20 01:09:21;;;;;;;18.60;10.43;;;20.30;78.50;;;;;;7376032;19;20018;-77
2022/10/20 01:11:58;;;;;;;21.58;11.15;;;20.20;78.50;;;;;;7396439;19;20021;-77
2022/10/20 01:14:38;;;;;;;26.00;10.95;;;20.20;78.60;;;;;;7375439;19;20018;-77
2022/10/20 01:17:14;;;;;;;24.13;10.90;;;20.20;78.70;;;;;;7375164;19;20014;-78
2022/10/20 01:20:19;;;;;;;22.30;11.35;;;20.20;78.80;;;;;;7375041;19;20011;-78
2022/10/20 01:23:23;;;;;;;27.55;11.85;;;20.10;79.70;;;;;;7374673;19;20014;-78
2022/10/20 01:26:06;;;;;;;31.05;11.88;;;20.10;78.90;;;;;;7373022;19;20021;-77
2022/10/20 01:28:42;;;;;;;23.77;12.60;;;20.20;78.90;;;;;;7372067;19;20032;-79
2022/10/20 01:31:19;;;;;;;21.58;12.75;;;20.10;79.10;;;;;;7373302;19;20540;-78
2022/10/20 01:33:56;;;;;;;23.17;12.63;;;20.20;79.40;;;;;;7372698;19;20011;-77
2022/10/20 01:36:32;;;;;;;24.50;12.85;;;20.10;79.50;;;;;;7373473;19;20017;-77
2022/10/20 01:39:06;;;;;;;19.25;11.70;;;20.10;79.60;;;;;;7401761;19;20063;-77
2022/10/20 01:41:40;;;;;;;24.88;12.27;;;20.20;79.70;;;;;;7373414;19;20015;-77
2022/10/20 01:44:18;;;;;;;28.25;12.45;;;20.20;79.70;;;;;;7369167;19;20039;-77
2022/10/20 01:46:48;;;;;;;30.45;12.60;;;20.20;79.80;;;;;;7371283;19;20106;-77
2022/10/20 01:49:17;;;;;;;32.72;12.88;;;20.20;79.70;;;;;;7368789;19;20014;-77
2022/10/20 01:51:50;;;;;;;22.80;11.98;;;20.20;79.80;;;;;;7373240;19;20094;-77
2022/10/20 01:54:24;;;;;;;33.67;12.68;;;20.20;79.80;;;;;;7372601;19;20449;-77
2022/10/20 01:57:09;;;;;;;23.10;11.68;;;20.20;79.80;;;;;;7392317;19;20026;-76
2022/10/20 01:59:50;;;;;;;23.55;8.88;;;20.20;79.80;;;;;;7371842;19;20039;-77
2022/10/20 02:02:51;;;;;;;20.08;8.43;;;20.10;80.20;;;;;;7372032;19;20431;-76
2022/10/20 02:05:39;;;;;;;23.53;8.87;;;20.00;81.10;;;;;;7373602;19;20018;-77
2022/10/20 02:08:13;;;;;;;28.67;9.05;;;20.00;81.80;;;;;;7373168;19;20014;-77
2022/10/20 02:10:47;;;;;;;24.77;7.40;;;20.00;82.20;;;;;;7370648;19;20430;-78
2022/10/20 02:13:18;;;;;;;18.00;7.90;;;20.00;82.70;;;;;;7371634;19;20018;-77
2022/10/20 02:15:53;;;;;;;26.30;8.43;;;19.80;84.40;;;;;;7372819;19;20029;-77
2022/10/20 02:18:26;;;;;;;25.33;7.82;;;19.90;84.30;;;;;;7373362;19;20067;-77
2022/10/20 02:20:58;;;;;;;22.17;8.18;;;19.90;84.20;;;;;;7394561;19;20025;-77
2022/10/20 02:23:26;;;;;;;21.48;8.02;;;19.90;84.30;;;;;;7370424;19;20102;-77
2022/10/20 02:25:57;;;;;;;30.05;7.03;;;19.90;84.50;;;;;;7372990;19;20021;-77
2022/10/20 02:28:27;;;;;;;25.40;6.25;;;19.90;84.60;;;;;;7371679;19;20074;-78
2022/10/20 02:30:59;;;;;;;20.17;6.47;;;19.90;84.30;;;;;;7371319;19;20022;-77
2022/10/20 02:33:28;;;;;;;26.70;6.15;;;19.90;83.90;;;;;;7372110;19;20021;-77
2022/10/20 02:36:00;;;;;;;26.38;5.85;;;19.80;84.10;;;;;;7395398;19;20089;-77
2022/10/20 02:38:29;;;;;;;25.90;6.28;;;19.90;84.20;;;;;;7373001;19;20035;-77
2022/10/20 02:40:57;;;;;;;12.70;5.38;;;19.70;84.70;;;;;;7372868;19;20077;-77
2022/10/20 02:43:26;;;;;;;20.48;5.40;;;19.50;84.70;;;;;;7372541;19;20118;-77
2022/10/20 02:45:57;;;;;;;17.63;5.47;;;19.40;84.90;;;;;;7369991;19;20010;-77
2022/10/20 02:48:26;;;;;;;15.43;5.07;;;19.20;85.10;;;;;;7373724;19;20010;-77
2022/10/20 02:50:55;;;;;;;18.15;4.70;;;19.30;85.50;;;;;;7392007;19;20030;-77
2022/10/20 02:53:24;;;;;;;22.25;5.40;;;19.50;85.00;;;;;;7371126;19;20022;-77
2022/10/20 02:55:52;;;;;;;19.20;5.00;;;19.70;84.70;;;;;;7373700;19;20031;-77
2022/10/20 02:58:21;;;;;;;15.70;5.53;;;19.80;83.90;;;;;;7372390;19;20015;-77
2022/10/20 03:00:51;;;;;;;22.55;5.50;;;19.90;83.70;;;;;;7372180;19;20053;-77
2022/10/20 03:03:26;;;;;;;22.27;5.05;;;19.80;83.60;;;;;;7371683;19;20029;-77
2022/10/20 03:05:54;;;;;;;20.20;5.10;;;19.90;83.80;;;;;;7392019;19;20018;-77
2022/10/20 03:08:23;;;;;;;25.65;5.45;;;19.80;84.00;;;;;;7373676;19;20022;-77
2022/10/20 03:10:52;;;;;;;21.50;5.53;;;19.90;84.60;;;;;;7371539;19;20011;-78
2022/10/20 03:13:21;;;;;;;12.88;5.10;;;20.00;83.50;;;;;;7376916;19;20025;-77
2022/10/20 03:15:49;;;;;;;20.65;5.93;;;20.10;83.30;;;;;;7373817;19;20063;-77
2022/10/20 03:18:18;;;;;;;17.63;5.85;;;20.20;83.30;;;;;;7380540;19;20098;-77
2022/10/20 03:20:52;;;;;;;29.92;6.35;;;20.20;83.20;;;;;;7401197;19;20090;-77
2022/10/20 03:23:22;;;;;;;25.02;5.72;;;20.20;83.00;;;;;;7377468;19;20087;-77
2022/10/20 03:25:50;;;;;;;21.48;5.82;;;20.20;83.10;;;;;;7372032;19;20018;-77
2022/10/20 03:28:19;;;;;;;28.33;7.32;;;20.20;83.90;;;;;;7373616;19;20014;-77
2022/10/20 03:30:48;;;;;;;24.05;6.28;;;20.20;83.20;;;;;;7371291;19;20018;-77
2022/10/20 03:33:16;;;;;;;19.42;6.28;;;20.20;83.30;;;;;;7372865;19;20082;-77
2022/10/20 03:35:45;;;;;;;30.00;6.50;;;20.20;83.20;;;;;;7397488;19;20035;-77
2022/10/20 03:38:16;;;;;;;30.75;7.28;;;20.20;83.40;;;;;;7373237;19;20019;-77
2022/10/20 03:40:45;;;;;;;19.50;6.78;;;20.30;83.60;;;;;;7378282;19;20094;-77
2022/10/20 03:43:14;;;;;;;20.17;6.38;;;20.30;83.50;;;;;;7378683;19;20437;-77
2022/10/20 03:45:42;;;;;;;28.50;8.25;;;20.40;83.50;;;;;;7378683;19;20078;-77
2022/10/20 03:48:13;;;;;;;21.45;8.43;;;20.40;83.50;;;;;;7375888;19;20389;-77
2022/10/20 03:50:42;;;;;;;25.75;9.73;;;20.30;83.50;;;;;;7399556;19;20022;-77
2022/10/20 03:53:16;;;;;;;22.85;8.85;;;20.40;83.80;;;;;;7374248;19;20022;-77
2022/10/20 03:55:45;;;;;;;30.65;8.73;;;20.40;83.80;;;;;;7373910;19;20568;-78
2022/10/20 03:58:14;;;;;;;29.70;9.65;;;20.40;83.80;;;;;;7374576;19;20007;-77
2022/10/20 04:00:42;;;;;;;25.17;8.77;;;20.40;83.90;;;;;;7372923;19;20025;-78
2022/10/20 04:03:11;;;;;;;23.70;8.80;;;20.40;83.80;;;;;;7373440;19;20761;-77
2022/10/20 04:05:40;;;;;;;27.45;9.65;;;20.40;83.80;;;;;;7389483;19;20026;-77
2022/10/20 04:08:09;;;;;;;24.92;8.25;;;20.40;84.00;;;;;;7369175;19;20023;-78
2022/10/20 04:10:41;;;;;;;23.17;8.57;;;20.30;84.10;;;;;;7371186;19;20041;-77
2022/10/20 04:13:09;;;;;;;;;;;20.40;84.20;;;;;;7370976;19;20022;-77
2022/10/20 04:15:38;;;;;;;31.38;8.77;;;20.40;84.30;;;;;;7371429;19;19923;-77
2022/10/20 04:18:07;;;;;;;29.75;8.77;;;20.40;84.00;;;;;;7368123;19;20019;-77
2022/10/20 04:20:35;;;;;;;31.88;8.70;;;20.30;84.10;;;;;;7397200;19;20018;-77
2022/10/20 04:23:04;;;;;;;25.52;8.73;;;20.30;84.40;;;;;;7369590;19;20022;-78
2022/10/20 04:25:33;;;;;;;31.05;8.55;;;20.30;84.50;;;;;;7368585;19;20018;-77
2022/10/20 04:28:04;;;;;;;33.80;9.23;;;20.30;84.60;;;;;;7366179;19;20025;-77
2022/10/20 04:30:33;;;;;;;28.70;8.32;;;20.30;84.50;;;;;;7367808;19;20650;-77
2022/10/20 04:33:01;;;;;;;28.75;9.50;;;20.20;84.50;;;;;;7388890;19;20022;-77
2022/10/20 04:35:30;;;;;;;27.20;8.95;;;20.30;84.80;;;;;;7390120;19;20098;-77
2022/10/20 04:37:59;;;;;;;22.02;7.90;;;20.30;84.80;;;;;;7370390;19;20022;-77
2022/10/20 04:40:27;;;;;;;18.42;7.57;;;20.30;84.80;;;;;;7371134;19;20779;-78
2022/10/20 04:42:56;;;;;;;22.52;8.10;;;20.30;84.70;;;;;;7378922;19;20104;-78
2022/10/20 04:45:28;;;;;;;24.70;7.90;;;20.30;84.60;;;;;;7376071;19;20087;-77
2022/10/20 04:47:56;;;;;;;;;;;20.30;84.50;;;;;;7401348;19;20085;-78
2022/10/20 04:50:25;;;;;;;22.35;7.70;;;20.40;84.60;;;;;;7379608;19;19929;-78
2022/10/20 04:52:53;;;;;;;29.48;9.50;;;20.40;84.10;;;;;;7375724;19;20014;-77
2022/10/20 04:55:22;;;;;;;27.17;9.07;;;20.40;84.90;;;;;;7376106;19;20086;-77
2022/10/20 04:57:51;;;;;;;14.77;6.60;;;20.30;84.10;;;;;;7377465;19;20018;-77
2022/10/20 05:00:20;;;;;;;24.20;7.88;;;20.30;83.90;;;;;;7378531;19;20018;-77
2022/10/20 05:02:51;;;;;;;23.73;7.03;;;20.30;84.80;;;;;;7398726;19;20086;-77
2022/10/20 05:05:20;;;;;;;21.08;6.65;;;20.20;84.10;;;;;;7381682;19;20056;-77
2022/10/20 05:07:48;;;;;;;20.98;6.00;;;20.30;83.70;;;;;;7382255;19;20018;-77
2022/10/20 05:10:19;;;;;;;22.27;5.47;;;20.30;83.80;;;;;;7379411;19;20038;-78
2022/10/20 05:12:48;;;;;;;16.42;4.65;;;20.20;82.70;;;;;;7379373;19;20017;-77
2022/10/20 05:15:17;;;;;;;20.50;5.95;;;20.20;82.70;;;;;;7381342;19;20081;-77
2022/10/20 05:17:45;;;;;;;20.52;5.15;;;20.20;82.60;;;;;;7404307;19;20457;-78
2022/10/20 05:20:17;;;;;;;13.40;5.63;;;20.10;82.50;;;;;;7378700;19;20025;-77
2022/10/20 05:22:45;;;;;;;;;;;20.10;82.70;;;;;;7374568;19;20021;-77
2022/10/20 05:25:14;;;;;;;18.42;5.47;;;20.20;82.90;;;;;;7375716;19;19922;-77
2022/10/20 05:27:43;;;;;;;15.15;5.53;;;20.00;82.30;;;;;;7376513;19;20023;-77
2022/10/20 05:30:12;;;;;;;21.50;5.65;;;20.00;83.50;;;;;;7375782;19;20022;-78
2022/10/20 05:32:41;;;;;;;21.55;5.85;;;20.00;83.50;;;;;;7396487;19;20014;-78
2022/10/20 05:35:11;;;;;;;14.32;5.47;;;19.90;82.70;;;;;;7379168;19;20028;-79
2022/10/20 05:37:42;;;;;;;16.50;5.00;;;19.90;82.70;;;;;;7375287;19;20018;-78
2022/10/20 05:40:12;;;;;;;12.18;4.03;;;19.70;82.70;;;;;;7376502;19;20022;-78
2022/10/20 05:42:41;;;;;;;10.35;4.07;;;19.80;82.80;;;;;;7380403;19;20026;-78
2022/10/20 05:45:11;;;;;;;18.35;4.30;;;19.80;82.40;;;;;;7378232;19;20323;-79
2022/10/20 05:47:41;;;;;;;21.10;5.05;;;19.90;82.40;;;;;;7403295;19;20019;-79
2022/10/20 05:50:11;;;;;;;14.48;4.22;;;19.90;82.30;;;;;;7377204;19;20023;-78
2022/10/20 05:52:43;;;;;;;19.35;5.07;;;20.00;82.30;;;;;;7376218;19;20597;-78
2022/10/20 05:55:12;;;;;;;15.18;4.85;;;20.00;82.20;;;;;;7380715;19;20054;-78
2022/10/20 05:57:40;;;;;;;21.10;5.32;;;20.00;82.20;;;;;;7383205;19;20022;-78
2022/10/20 06:00:11;;;;;;;22.10;5.53;;;20.10;82.20;;;;;;7383619;19;20058;-78
2022/10/20 06:02:40;;;;;;;16.43;5.33;;;20.10;82.30;;;;;;7401251;19;20039;-79
2022/10/20 06:05:09;;;;;;;19.95;5.05;;;20.10;82.20;;;;;;7376916;19;20022;-80
2022/10/20 06:07:37;;;;;;;15.77;5.15;;;20.10;82.10;;;;;;7382600;19;20011;-77
2022/10/20 06:10:09;;;;;;;13.73;4.72;;;20.10;82.00;;;;;;7379768;19;20074;-78
2022/10/20 06:12:38;;;;;;;16.77;5.95;;;20.10;82.20;;;;;;7382642;19;20078;-81
2022/10/20 06:15:09;;;;;;;11.00;4.65;;;20.10;82.20;;;;;;7389424;19;20022;-79
2022/10/20 06:17:37;;;;;;;14.27;4.97;;;20.10;82.20;;;;;;7414669;19;20022;-78
2022/10/20 06:20:07;;;;;;;16.10;5.90;;;20.10;82.20;;;;;;7390634;19;20394;-79
2022/10/20 06:22:36;;;;;;;17.30;6.65;;;20.10;82.20;;;;;;7390490;19;20501;-77
2022/10/20 06:25:04;;;;;;;13.32;5.68;;;20.10;82.10;;;;;;7381169;19;20018;-81
2022/10/20 06:27:36;;;;;;;15.88;5.72;;;20.10;82.20;;;;;;7376147;19;20023;-79
2022/10/20 06:30:04;;;;;;;17.58;6.38;;;20.10;82.10;;;;;;7372206;19;20031;-77
2022/10/20 06:32:33;;;;;;;19.73;6.28;;;20.10;82.00;;;;;;7392524;19;20133;-77
2022/10/20 06:35:02;;;;;;;17.00;6.28;;;20.10;82.00;;;;;;7374041;19;20698;-77
2022/10/20 06:37:30;;;;;;;19.80;5.95;;;20.00;82.00;;;;;;7376255;19;20035;-78
2022/10/20 06:40:02;;;;;;;17.58;5.93;;;20.00;82.90;;;;;;7371023;19;20026;-78
2022/10/20 06:42:31;;;;;;;15.65;5.75;;;20.00;82.20;;;;;;7374043;19;20090;-79
2022/10/20 06:45:02;;;;;;;17.55;5.13;;;20.00;82.10;;;;;;7390387;19;20015;-78
2022/10/20 06:47:32;;;;;;;11.85;5.55;;;20.00;82.10;;;;;;7374308;19;20025;-79
2022/10/20 06:50:00;;;;;;;20.25;5.55;;;20.00;81.90;;;;;;7369106;19;20018;-78
2022/10/20 06:52:29;;;;;;;21.73;4.97;;;19.90;81.80;;;;;;7370485;19;20568;-78
2022/10/20 06:54:57;;;;;;;20.42;5.03;;;19.90;81.90;;;;;;7373460;19;20090;-77
2022/10/20 06:57:26;;;;;;;14.50;4.93;;;19.80;81.90;;;;;;7367488;19;20114;-78
2022/10/20 06:59:55;;;;;;;18.90;5.22;;;19.80;82.00;;;;;;7393152;19;20015;-77
2022/10/20 07:02:26;;;;;;;21.25;5.22;;;19.90;82.10;;;;;;7369430;19;20029;-77
2022/10/20 07:04:55;;;;;;;17.63;5.35;;;19.90;82.00;;;;;;7370963;19;20449;-77
2022/10/20 07:07:23;;;;;;;15.25;4.38;;;19.90;81.70;;;;;;7377198;19;20608;-78
2022/10/20 07:09:52;;;;;;;16.75;4.57;;;19.90;81.40;;;;;;7381000;19;20010;-78
2022/10/20 07:12:21;;;;;;;16.63;5.00;;;19.90;81.40;;;;;;7378933;19;20061;-78
2022/10/20 07:14:50;;;;;;;14.50;4.50;;;19.90;81.50;;;;;;7395699;19;20022;-78
2022/10/20 07:17:19;;;;;;;11.77;4.28;;;19.80;81.30;;;;;;7370486;19;20014;-78
2022/10/20 07:19:50;;;;;;;14.75;4.82;;;19.80;81.10;;;;;;7374211;19;20127;-78
2022/10/20 07:22:19;;;;;;;23.20;5.43;;;19.80;81.10;;;;;;7378121;19;20018;-78
2022/10/20 07:24:47;;;;;;;12.77;5.60;;;19.70;81.10;;;;;;7378286;19;20035;-78
2022/10/20 07:27:16;;;;;;;14.75;5.30;;;19.70;81.30;;;;;;7379394;19;20085;-78
2022/10/20 07:29:45;;;;;;;13.30;5.38;;;19.70;81.30;;;;;;7401261;19;20306;-78
2022/10/20 07:32:13;;;;;;;11.98;4.97;;;19.70;81.20;;;;;;7371876;19;20025;-76
2022/10/20 07:34:42;;;;;;;17.33;5.60;;;19.70;81.20;;;;;;7372896;19;20109;-79
2022/10/20 07:37:13;;;;;;;13.98;5.57;;;19.70;81.30;;;;;;7370997;19;20608;-78
2022/10/20 07:39:42;;;;;;;14.13;5.47;;;19.80;81.50;;;;;;7365890;19;20065;-78
2022/10/20 07:42:11;;;;;;;10.60;4.70;;;19.90;81.40;;;;;;7367900;19;20026;-77
2022/10/20 07:44:40;;;;;;;16.48;5.75;;;19.90;81.60;;;;;;7392220;19;20018;-78
2022/10/20 07:47:08;;;;;;;18.02;5.82;;;19.90;81.50;;;;;;7368659;19;20028;-79
2022/10/20 07:49:37;;;;;;;15.95;5.85;;;20.00;81.40;;;;;;7372052;19;20104;-78
2022/10/20 07:52:07;;;;;;;18.88;6.10;;;20.00;81.40;;;;;;7371551;19;20081;-78
2022/10/20 07:54:38;;;;;;;11.55;5.03;;;20.00;81.40;;;;;;7373259;19;20010;-78
2022/10/20 07:57:07;;;;;;;16.27;5.32;;;20.10;81.40;;;;;;7372231;19;20023;-77
2022/10/20 07:59:35;;;;;;;16.67;5.32;;;20.10;81.70;;;;;;7393383;19;20017;-78
2022/10/20 08:02:04;;;;;;;20.80;5.32;;;20.20;81.90;;;;;;7372870;19;20089;-78
2022/10/20 08:04:33;;;;;;;18.65;5.05;;;20.20;81.90;;;;;;7365091;19;20015;-78
2022/10/20 08:07:02;;;;;;;17.98;4.40;;;20.30;81.90;;;;;;7368663;19;20015;-78
2022/10/20 08:09:31;;;;;;;12.02;4.30;;;20.40;81.60;;;;;;7369899;19;20018;-78
2022/10/20 08:12:02;;;;;;;11.20;3.88;;;20.40;81.30;;;;;;7388891;19;20936;-78
2022/10/20 08:14:33;;;;;;;14.30;4.40;;;20.40;81.10;;;;;;7367865;19;20018;-78
2022/10/20 08:17:03;;;;;;;9.07;3.67;;;20.50;80.80;;;;;;7367418;19;20595;-78
2022/10/20 08:19:32;;;;;;;12.20;4.13;;;20.50;80.80;;;;;;7376507;19;20017;-78
2022/10/20 08:22:01;;;;;;;10.45;3.65;;;20.50;80.80;;;;;;7380296;19;20014;-78
2022/10/20 08:24:30;;;;;;;11.02;4.38;;;20.60;80.90;;;;;;7376979;19;20042;-78
2022/10/20 08:27:01;;;;;;;9.65;3.97;;;20.60;80.90;;;;;;7393906;19;20394;-78
2022/10/20 08:29:30;;;;;;;;;;;20.70;81.00;;;;;;7372815;19;20014;-77
2022/10/20 08:31:58;;;;;;;19.67;4.07;;;20.70;80.80;;;;;;7374017;19;19911;-78
2022/10/20 08:34:27;;;;;;;12.18;3.85;;;20.70;80.20;;;;;;7379591;19;20562;-78
2022/10/20 08:36:56;;;;;;;12.57;3.90;;;20.70;80.20;;;;;;7385485;19;20022;-78
2022/10/20 08:39:25;;;;;;;11.85;4.18;;;20.70;80.20;;;;;;7384900;19;20025;-78
2022/10/20 08:41:55;;;;;;;9.88;3.55;;;20.80;80.30;;;;;;7409797;19;20031;-79
2022/10/20 08:44:29;;;;;;;13.10;4.00;;;20.80;80.30;;;;;;7391652;19;20028;-78
2022/10/20 08:46:58;;;;;;;11.43;3.78;;;20.80;80.30;;;;;;7387602;19;20101;-80
2022/10/20 08:49:31;;;;;;;8.32;3.83;;;20.80;80.00;;;;;;7387899;19;20078;-79
2022/10/20 08:52:00;;;;;;;12.55;3.72;;;20.80;80.10;;;;;;7387228;19;20017;-79
2022/10/20 08:54:29;;;;;;;5.32;3.15;;;20.80;79.90;;;;;;7383202;19;20014;-79
2022/10/20 08:56:57;;;;;;;14.27;4.05;;;20.80;79.80;;;;;;7405408;19;20354;-78
2022/10/20 08:59:36;;;;;;;9.82;3.60;;;20.80;79.60;;;;;;7384781;19;20023;-78
2022/10/20 09:02:16;;;;;;;8.88;3.45;;;20.70;79.80;;;;;;7382092;19;20058;-79
2022/10/20 09:04:49;;;;;;;9.23;4.20;;;20.70;79.90;;;;;;7386036;19;20018;-78
2022/10/20 09:07:24;;;;;;;11.65;4.38;;;20.70;80.00;;;;;;7379738;19;20022;-78
2022/10/20 09:09:54;;;;;;;6.35;4.28;;;20.60;80.20;;;;;;7383013;19;20015;-78
2022/10/20 09:12:23;;;;;;;10.60;4.47;;;20.70;80.50;;;;;;7381408;19;20042;-78
2022/10/20 09:14:56;;;;;;;12.27;4.70;;;20.60;80.50;;;;;;7392945;19;20086;-78
2022/10/20 09:17:25;;;;;;;10.32;4.38;;;20.60;80.50;;;;;;7376281;19;20015;-79
2022/10/20 09:19:58;;;;;;;10.48;4.30;;;20.60;80.50;;;;;;7368554;19;20021;-78
2022/10/20 09:22:30;;;;;;;12.20;4.50;;;20.60;80.60;;;;;;7370987;19;20025;-78
2022/10/20 09:24:59;;;;;;;12.63;4.40;;;20.60;80.60;;;;;;7379388;19;20018;-77
2022/10/20 09:27:34;;;;;;;9.63;4.07;;;20.70;80.60;;;;;;7373246;19;20018;-78
2022/10/20 09:30:19;;;;;;;8.40;3.00;;;20.70;80.50;;;;;;7379390;19;20025;-77
2022/10/20 09:32:48;;;;;;;4.63;2.90;;;20.70;80.20;;;;;;7396931;19;20401;-77
2022/10/20 09:35:26;;;;;;;10.50;2.97;;;20.80;80.20;;;;;;7373055;19;20102;-79
2022/10/20 09:38:05;;;;;;;4.32;2.67;;;20.80;79.80;;;;;;7374757;19;20460;-78
2022/10/20 09:40:34;;;;;;;11.50;3.40;;;20.80;79.70;;;;;;7378353;19;20889;-78
2022/10/20 09:43:08;;;;;;;4.03;2.28;;;20.80;79.70;;;;;;7374883;19;20121;-78
2022/10/20 09:45:51;;;;;;;6.35;2.28;;;20.80;79.40;;;;;;7377580;19;20048;-77
2022/10/20 09:48:25;;;;;;;16.85;2.30;;;20.90;79.10;;;;;;7377934;19;20018;-77
2022/10/20 09:50:57;;;;;;;9.00;2.63;;;20.90;78.80;;;;;;7398593;19;20383;-77
2022/10/20 09:53:34;;;;;;;9.18;2.30;;;20.90;78.20;;;;;;7378971;19;20022;-77
2022/10/20 09:56:03;;;;;;;5.10;1.70;;;20.90;78.20;;;;;;7376040;19;20039;-77
2022/10/20 09:58:36;;;;;;;10.02;2.72;;;20.80;77.70;;;;;;7377794;19;20089;-78
2022/10/20 10:01:14;;;;;;;6.75;1.90;;;20.80;77.40;;;;;;7376241;19;20245;-78
2022/10/20 10:03:44;;;;;;;4.60;2.03;;;20.80;77.50;;;;;;7372928;19;20098;-77
2022/10/20 10:06:29;;;;;;;4.97;1.80;;;20.90;77.50;;;;;;7371857;19;20018;-78
2022/10/20 10:08:59;;;;;;;7.95;2.05;;;20.70;77.40;;;;;;7390538;19;20025;-78
2022/10/20 10:11:34;;;;;;;8.98;1.65;;;20.90;77.50;;;;;;7371042;19;20919;-78
2022/10/20 10:14:03;;;;;;;3.47;1.30;;;20.70;76.20;;;;;;7374180;19;20044;-77
2022/10/20 10:16:42;;;;;;;4.65;1.30;;;20.80;76.40;;;;;;7375923;19;20450;-81
2022/10/20 10:19:19;;;;;;;7.97;1.80;;;20.90;76.40;;;;;;7375647;19;20673;-80
2022/10/20 10:21:50;;;;;;;8.23;1.48;;;21.00;76.20;;;;;;7374393;19;20010;-80
2022/10/20 10:24:41;;;;;;;6.35;1.38;;;21.00;75.20;;;;;;7377781;19;20343;-80
2022/10/20 10:27:25;;;;;;;;;;;21.00;75.00;;;;;;7378979;19;20422;-80
2022/10/20 10:29:54;;;;;;;6.78;1.75;;;21.10;74.30;;;;;;7397358;19;19925;-80
2022/10/20 10:32:29;;;;;;;5.10;1.75;;;21.20;74.60;;;;;;7376380;19;20023;-81
2022/10/20 10:35:06;;;;;;;4.13;1.77;;;21.20;74.60;;;;;;7370796;19;20140;-79
2022/10/20 10:37:38;;;;;;;3.85;1.65;;;21.30;73.90;;;;;;7375506;19;20829;-79
2022/10/20 10:40:13;;;;;;;;;;;21.40;73.50;;;;;;7377517;19;20381;-80
2022/10/20 10:43:06;;;;;;;4.28;1.40;;;21.40;73.70;;;;;;7380830;19;19917;-81
2022/10/20 10:45:49;;;;;;;4.88;1.80;;;21.50;74.50;;;;;;7379983;19;20010;-81
2022/10/20 10:48:45;;;;;;;4.70;1.90;;;21.60;74.10;;;;;;7377328;19;20081;-81
2022/10/20 10:51:25;;;;;;;4.43;1.50;;;21.70;73.80;;;;;;7379142;19;20077;-79
2022/10/20 10:54:02;;;;;;;10.75;1.63;;;21.80;73.80;;;;;;7396982;19;20086;-82
2022/10/20 10:56:38;;;;;;;7.07;1.83;;;21.90;72.40;;;;;;7377413;19;20035;-81
2022/10/20 10:59:13;;;;;;;3.92;1.50;;;21.90;72.20;;;;;;7376489;19;20022;-80
2022/10/20 11:02:24;;;;;;;5.53;1.17;;;21.90;71.90;;;;;;7378356;19;20018;-80
2022/10/20 11:05:18;;;;;;;3.20;1.45;;;21.90;71.50;;;;;;7374584;19;20092;-80
2022/10/20 11:07:54;;;;;;;3.15;1.25;;;21.90;71.40;;;;;;7377041;19;20018;-79
2022/10/20 11:10:28;;;;;;;4.78;1.30;;;21.90;71.00;;;;;;7374936;19;20091;-78
2022/10/20 11:13:10;;;;;;;9.38;1.67;;;21.90;71.10;;;;;;7370755;19;20018;-79
2022/10/20 11:15:55;;;;;;;5.70;1.27;;;21.90;71.40;;;;;;7379465;19;20060;-79
2022/10/20 11:18:48;;;;;;;7.95;1.40;;;21.90;71.10;;;;;;7379747;19;21915;-78
2022/10/20 11:21:30;;;;;;;6.45;1.50;;;21.90;70.40;;;;;;7380283;19;20021;-78
2022/10/20 11:24:12;;;;;;;;;;;21.70;71.10;;;;;;7401246;19;20025;-77
2022/10/20 11:26:43;;;;;;;1.63;1.23;;;21.90;71.70;;;;;;7380539;19;19926;-78
2022/10/20 11:29:15;;;;;;;4.03;1.42;;;21.80;71.40;;;;;;7371327;19;20018;-77
2022/10/20 11:31:53;;;;;;;2.25;1.08;;;21.80;71.70;;;;;;7372893;19;20014;-78
2022/10/20 11:34:28;;;;;;;10.60;1.23;;;21.80;71.90;;;;;;7371349;19;20025;-78
2022/10/20 11:37:06;;;;;;;6.13;1.42;;;21.70;71.70;;;;;;7372012;19;20019;-78
2022/10/20 11:39:41;;;;;;;4.38;1.20;;;21.80;72.00;;;;;;7372956;19;20021;-77
2022/10/20 11:42:22;;;;;;;4.45;1.42;;;21.80;72.00;;;;;;7372667;19;20527;-77
2022/10/20 11:44:51;;;;;;;4.05;1.70;;;21.90;72.30;;;;;;7392672;19;20165;-77
2022/10/20 11:47:23;;;;;;;4.57;1.50;;;22.00;71.90;;;;;;7369019;19;20093;-77
2022/10/20 11:49:53;;;;;;;6.63;1.92;;;21.90;72.00;;;;;;7371023;19;20018;-77
2022/10/20 11:52:59;;;;;;;11.52;2.08;;;22.10;72.10;;;;;;7369667;19;20016;-77
2022/10/20 11:56:12;;;;;;;9.38;2.08;;;22.10;72.00;;;;;;7371134;19;20047;-77
2022/10/20 11:59:23;;;;;;;5.65;1.20;;;22.10;71.60;;;;;;7370671;19;20025;-77
2022/10/20 12:02:16;;;;;;;4.83;1.47;;;22.20;71.80;;;;;;7368639;19;20069;-78
2022/10/20 12:05:11;;;;;;;3.33;1.55;;;22.30;71.20;;;;;;7370886;19;20847;-78
2022/10/20 12:07:56;;;;;;;5.40;1.50;;;22.20;72.20;;;;;;7370973;19;20029;-78
2022/10/20 12:10:40;;;;;;;3.60;1.63;;;22.30;71.10;;;;;;7372841;19;20049;-77
2022/10/20 12:13:24;;;;;;;4.07;1.20;;;22.30;70.80;;;;;;7366626;19;20054;-78
2022/10/20 12:15:56;;;;;;;6.57;1.50;;;22.20;70.90;;;;;;7357300;19;20110;-78
2022/10/20 12:18:27;;;;;;;;;;;22.30;70.70;;;;;;7363826;19;20019;-78
2022/10/20 12:20:59;;;;;;;3.38;1.50;;;22.40;70.50;;;;;;7383467;19;20086;-78
2022/10/20 12:24:01;;;;;;;4.72;1.55;;;22.50;70.30;;;;;;7363305;19;20042;-78
2022/10/20 12:27:08;;;;;;;5.55;1.60;;;22.50;70.90;;;;;;7366710;19;20049;-78
2022/10/20 12:29:57;;;;;;;5.68;1.58;;;22.70;70.80;;;;;;7367069;19;20010;-78
2022/10/20 12:33:10;;;;;;;4.95;1.42;;;22.80;70.70;;;;;;7361336;19;20101;-78
2022/10/20 12:36:03;;;;;;;7.05;1.60;;;23.00;70.80;;;;;;7365368;19;20011;-78
2022/10/20 12:38:33;;;;;;;4.88;1.20;;;23.10;69.80;;;;;;7369087;19;20019;-78
2022/10/20 12:41:03;;;;;;;2.85;1.50;;;23.30;69.20;;;;;;7369930;19;20014;-78
2022/10/20 12:43:46;;;;;;;5.03;1.17;;;23.40;68.10;;;;;;7370336;19;20089;-79
2022/10/20 12:46:23;;;;;;;10.07;1.38;;;23.60;66.90;;;;;;7370687;19;20054;-77
2022/10/20 12:48:59;;;;;;;6.53;1.15;;;23.70;66.30;;;;;;7367673;19;20064;-78
2022/10/20 12:51:37;;;;;;;9.90;1.30;;;23.70;65.80;;;;;;7372294;19;20022;-78
2022/10/20 12:54:16;;;;;;;11.05;1.58;;;23.80;65.20;;;;;;7369560;19;20054;-79
2022/10/20 12:56:45;;;;;;;3.58;1.15;;;23.90;65.00;;;;;;7389982;19;20127;-78
2022/10/20 12:59:47;;;;;;;1.45;1.00;;;23.90;64.30;;;;;;7368420;19;20025;-78
2022/10/20 13:02:48;;;;;;;4.03;1.30;;;24.00;64.70;;;;;;7365982;19;20018;-78
2022/10/20 13:05:47;;;;;;;12.93;1.52;;;23.90;64.70;;;;;;7377917;19;20437;-78
2022/10/20 13:08:38;;;;;;;10.93;1.75;;;24.00;65.70;;;;;;7371568;19;20101;-79
2022/10/20 13:11:36;;;;;;;2.53;1.20;;;24.00;65.20;;;;;;7375073;19;20018;-79
2022/10/20 13:14:28;;;;;;;5.45;1.20;;;24.10;64.70;;;;;;7378717;19;20018;-79